Time;durP1;ratioP1;P1;durP2;ratioP2;P2;SDS_P1;SDS_P2;PMS_P1;PMS_P2;Temp;Humidity;BMP_temperature;BMP_pressure;BME280_temperature;BME280_humidity;BME280_pressure;Samples;Min_cycle;Max_cycle;Signal;HPM_P1;HPM_P2
2022/05/31 00:00:32;;;;;;;6.10;1.83;;;12.10;78.00;;;;;;4977090;28;20033;-86
2022/05/31 00:02:59;;;;;;;4.05;1.45;;;12.10;78.10;;;;;;4994480;28;20109;-86
2022/05/31 00:05:25;;;;;;;7.82;1.80;;;12.10;78.30;;;;;;4976999;28;20022;-87
2022/05/31 00:07:51;;;;;;;4.35;1.73;;;12.10;78.40;;;;;;4994655;28;20069;-88
2022/05/31 00:10:17;;;;;;;4.70;1.83;;;12.00;78.50;;;;;;4960963;28;20039;-86
2022/05/31 00:12:42;;;;;;;4.05;1.70;;;12.00;78.70;;;;;;4994497;28;20534;-87
2022/05/31 00:15:10;;;;;;;5.57;2.42;;;12.00;78.90;;;;;;4960926;28;20038;-86
2022/05/31 00:17:36;;;;;;;3.67;1.55;;;11.90;79.00;;;;;;4976879;28;20030;-86
2022/05/31 00:20:04;;;;;;;4.78;1.85;;;11.90;79.20;;;;;;4977096;28;20619;-86
2022/05/31 00:22:32;;;;;;;5.78;2.13;;;11.90;79.20;;;;;;4994395;28;20081;-86
2022/05/31 00:24:58;;;;;;;4.57;1.90;;;11.90;79.30;;;;;;4976915;28;20053;-87
2022/05/31 00:27:25;;;;;;;3.60;2.03;;;11.90;79.40;;;;;;4976941;28;20061;-87
2022/05/31 00:29:50;;;;;;;4.80;2.08;;;11.90;79.50;;;;;;4994340;28;20038;-87
2022/05/31 00:32:24;;;;;;;4.75;2.38;;;11.90;79.60;;;;;;4994311;28;20089;-87
2022/05/31 00:34:51;;;;;;;3.42;1.83;;;11.90;79.70;;;;;;4994528;28;20485;-86
2022/05/31 00:37:18;;;;;;;4.72;1.83;;;11.80;79.80;;;;;;4996188;28;20022;-86
2022/05/31 00:39:44;;;;;;;3.90;1.75;;;11.80;80.00;;;;;;4980805;28;20022;-87
2022/05/31 00:42:18;;;;;;;4.00;2.08;;;11.80;80.10;;;;;;4980981;28;20405;-87
2022/05/31 00:44:43;;;;;;;;;;;11.70;80.30;;;;;;4997653;28;20100;-87
2022/05/31 00:47:32;;;;;;;7.17;2.13;;;11.70;80.40;;;;;;4998776;28;19906;-86
2022/05/31 00:50:02;;;;;;;5.95;1.95;;;11.70;80.30;;;;;;4999308;28;20109;-86
2022/05/31 00:52:31;;;;;;;5.25;2.33;;;11.70;80.30;;;;;;4999800;28;20034;-86
2022/05/31 00:55:02;;;;;;;4.77;2.20;;;11.60;80.30;;;;;;4999244;28;20475;-87
2022/05/31 00:57:32;;;;;;;6.53;2.23;;;11.60;80.50;;;;;;4981681;28;20030;-86
2022/05/31 01:00:03;;;;;;;5.20;2.08;;;11.60;80.70;;;;;;4980539;28;20027;-86
2022/05/31 01:02:29;;;;;;;5.83;2.03;;;11.60;80.80;;;;;;4997990;28;20475;-85
2022/05/31 01:04:59;;;;;;;3.93;1.77;;;11.60;80.90;;;;;;4974693;28;20109;-86
2022/05/31 01:07:25;;;;;;;8.00;2.27;;;11.60;80.90;;;;;;4987914;28;20047;-85
2022/05/31 01:09:52;;;;;;;4.47;2.40;;;11.60;81.10;;;;;;4978883;28;20062;-86
2022/05/31 01:12:19;;;;;;;4.80;2.73;;;11.50;81.10;;;;;;4978282;28;20031;-85
2022/05/31 01:14:44;;;;;;;7.33;2.47;;;11.50;81.20;;;;;;4979955;28;20147;-86
2022/05/31 01:17:17;;;;;;;4.57;2.67;;;11.50;81.30;;;;;;4979107;28;20073;-86
2022/05/31 01:20:01;;;;;;;8.07;2.90;;;11.40;81.60;;;;;;4981263;28;20162;-86
2022/05/31 01:22:30;;;;;;;6.93;2.72;;;11.40;81.50;;;;;;4977588;28;20076;-85
2022/05/31 01:25:21;;;;;;;5.20;2.33;;;11.40;81.50;;;;;;4981394;28;20038;-85
2022/05/31 01:28:06;;;;;;;4.63;2.30;;;11.40;81.50;;;;;;4977587;28;20034;-86
2022/05/31 01:30:35;;;;;;;4.85;2.40;;;11.30;81.60;;;;;;4992769;28;20034;-86
2022/05/31 01:33:08;;;;;;;7.73;2.80;;;11.30;81.60;;;;;;4977541;28;20038;-85
2022/05/31 01:35:35;;;;;;;6.83;2.63;;;11.30;81.80;;;;;;4992795;28;20046;-86
2022/05/31 01:38:13;;;;;;;9.03;2.83;;;11.30;81.90;;;;;;4995362;28;20057;-86
2022/05/31 01:41:00;;;;;;;6.97;2.67;;;11.30;82.10;;;;;;4976091;28;20023;-85
2022/05/31 01:43:26;;;;;;;9.50;2.70;;;11.20;82.30;;;;;;4977152;28;20550;-84
2022/05/31 01:46:12;;;;;;;5.17;2.87;;;11.30;82.40;;;;;;4977543;28;20115;-86
2022/05/31 01:48:40;;;;;;;4.90;2.50;;;11.20;82.40;;;;;;4977105;28;20085;-84
2022/05/31 01:51:06;;;;;;;5.83;2.50;;;11.20;82.50;;;;;;4977268;28;20475;-85
2022/05/31 01:53:33;;;;;;;6.20;2.57;;;11.20;82.60;;;;;;4992220;28;20501;-86
2022/05/31 01:55:59;;;;;;;5.38;1.95;;;11.20;82.70;;;;;;4992582;28;20105;-86
2022/05/31 01:58:29;;;;;;;6.57;2.17;;;11.20;82.70;;;;;;4992282;28;20039;-85
2022/05/31 02:00:55;;;;;;;5.65;2.35;;;11.20;82.80;;;;;;4977255;28;20031;-85
2022/05/31 02:03:22;;;;;;;4.87;2.50;;;11.30;82.90;;;;;;4992073;28;20030;-85
2022/05/31 02:05:53;;;;;;;6.73;2.87;;;11.30;82.80;;;;;;4977069;28;20058;-85
2022/05/31 02:08:21;;;;;;;4.83;2.20;;;11.30;82.80;;;;;;4976951;28;20027;-85
2022/05/31 02:10:48;;;;;;;5.88;2.70;;;11.30;82.90;;;;;;4959506;28;20037;-85
2022/05/31 02:13:15;;;;;;;5.50;2.33;;;11.30;83.10;;;;;;4970598;28;20120;-85
2022/05/31 02:15:41;;;;;;;5.28;2.75;;;11.30;83.00;;;;;;4975696;28;20037;-85
2022/05/31 02:18:08;;;;;;;4.35;2.03;;;11.40;83.10;;;;;;4959581;28;20027;-85
2022/05/31 02:20:33;;;;;;;4.37;2.20;;;11.30;83.10;;;;;;4976823;28;20115;-85
2022/05/31 02:22:59;;;;;;;6.47;2.43;;;11.30;83.20;;;;;;4975445;28;20459;-85
2022/05/31 02:25:25;;;;;;;4.15;2.10;;;11.40;83.30;;;;;;4975640;28;20031;-86
2022/05/31 02:27:51;;;;;;;5.70;2.30;;;11.40;83.40;;;;;;4977702;28;20030;-85
2022/05/31 02:30:17;;;;;;;5.15;2.85;;;11.30;83.40;;;;;;4975733;28;20030;-85
2022/05/31 02:32:43;;;;;;;6.07;2.10;;;11.40;83.60;;;;;;4977322;28;20058;-85
2022/05/31 02:35:09;;;;;;;5.07;2.60;;;11.40;83.70;;;;;;4976088;28;20411;-85
2022/05/31 02:37:36;;;;;;;7.30;2.80;;;11.40;83.70;;;;;;4943589;28;20066;-85
2022/05/31 02:40:02;;;;;;;5.07;2.30;;;11.40;83.70;;;;;;4959456;28;20376;-85
2022/05/31 02:42:28;;;;;;;7.43;2.40;;;11.30;83.70;;;;;;4959374;28;20503;-86
2022/05/31 02:44:53;;;;;;;5.75;2.40;;;11.30;83.80;;;;;;4959463;28;20030;-86
2022/05/31 02:47:20;;;;;;;4.97;2.50;;;11.30;83.90;;;;;;4959327;28;20023;-87
2022/05/31 02:49:46;;;;;;;5.43;2.80;;;11.20;83.90;;;;;;4976350;28;20364;-86
2022/05/31 02:52:12;;;;;;;6.30;2.67;;;11.20;84.00;;;;;;4976298;28;20027;-86
2022/05/31 02:54:37;;;;;;;6.07;2.57;;;11.20;84.00;;;;;;4942813;28;20027;-85
2022/05/31 02:57:04;;;;;;;5.13;2.83;;;11.20;84.10;;;;;;4994310;28;20034;-86
2022/05/31 02:59:30;;;;;;;7.20;2.80;;;11.10;84.10;;;;;;4994995;28;20557;-85
2022/05/31 03:01:56;;;;;;;5.85;2.65;;;11.10;84.20;;;;;;4995757;28;20030;-85
2022/05/31 03:04:22;;;;;;;8.43;3.20;;;11.10;84.40;;;;;;4978090;28;20454;-85
2022/05/31 03:06:48;;;;;;;4.80;2.45;;;11.10;84.50;;;;;;4978394;28;20117;-85
2022/05/31 03:09:14;;;;;;;4.83;2.57;;;11.10;84.50;;;;;;4995378;28;20061;-86
2022/05/31 03:11:56;;;;;;;6.57;2.37;;;11.00;84.50;;;;;;4977615;28;20034;-86
2022/05/31 03:14:53;;;;;;;7.93;3.10;;;11.10;84.60;;;;;;4975876;28;20027;-86
2022/05/31 03:17:33;;;;;;;7.30;3.20;;;11.00;84.70;;;;;;4957731;28;20130;-86
2022/05/31 03:20:11;;;;;;;5.30;2.50;;;11.10;84.80;;;;;;4975766;28;20026;-85
2022/05/31 03:22:44;;;;;;;6.07;2.63;;;11.00;84.80;;;;;;4983368;28;20093;-86
2022/05/31 03:25:22;;;;;;;5.17;2.73;;;11.00;84.80;;;;;;4991065;28;20430;-86
2022/05/31 03:27:49;;;;;;;6.87;2.63;;;11.00;85.40;;;;;;4993848;28;20033;-85
2022/05/31 03:30:15;;;;;;;5.30;2.70;;;11.00;84.80;;;;;;4994957;28;20105;-87
2022/05/31 03:32:43;;;;;;;7.57;3.33;;;11.10;84.90;;;;;;4977651;28;20028;-86
2022/05/31 03:35:09;;;;;;;6.93;3.50;;;11.10;84.80;;;;;;4977759;28;20471;-86
2022/05/31 03:37:35;;;;;;;9.70;3.40;;;11.00;84.80;;;;;;4994787;28;20026;-86
2022/05/31 03:40:01;;;;;;;6.93;3.13;;;11.00;84.80;;;;;;4994768;28;20066;-86
2022/05/31 03:42:26;;;;;;;6.30;3.27;;;11.00;84.90;;;;;;4993404;28;20053;-86
2022/05/31 03:44:52;;;;;;;5.10;2.90;;;10.90;84.80;;;;;;4977481;28;20037;-86
2022/05/31 03:47:18;;;;;;;7.10;3.55;;;11.00;85.00;;;;;;4993291;28;20057;-86
2022/05/31 03:49:43;;;;;;;8.20;4.07;;;10.90;85.10;;;;;;4993359;28;20398;-86
2022/05/31 03:52:09;;;;;;;6.07;3.80;;;11.00;85.20;;;;;;4994507;28;20039;-86
2022/05/31 03:54:37;;;;;;;6.27;3.70;;;11.00;85.30;;;;;;4993499;28;20114;-86
2022/05/31 03:57:04;;;;;;;7.67;3.70;;;11.00;85.40;;;;;;4994645;28;20096;-86
2022/05/31 03:59:35;;;;;;;9.57;3.63;;;11.00;85.40;;;;;;4977115;28;20125;-86
2022/05/31 04:02:00;;;;;;;9.67;3.97;;;11.10;85.50;;;;;;4991620;28;20030;-86
2022/05/31 04:04:26;;;;;;;9.20;4.03;;;11.00;85.50;;;;;;4964941;28;20109;-86
2022/05/31 04:06:51;;;;;;;6.47;3.38;;;11.00;85.50;;;;;;4957575;28;20575;-87
2022/05/31 04:09:17;;;;;;;8.63;4.03;;;11.00;85.60;;;;;;4957849;28;20035;-86
2022/05/31 04:11:42;;;;;;;7.67;3.63;;;11.00;85.70;;;;;;4956780;28;20479;-86
2022/05/31 04:14:08;;;;;;;7.47;4.33;;;11.00;85.70;;;;;;4974900;28;20035;-86
2022/05/31 04:16:34;;;;;;;9.13;3.90;;;11.00;85.90;;;;;;4961686;28;20039;-86
2022/05/31 04:18:59;;;;;;;10.23;4.07;;;11.00;86.00;;;;;;4976808;28;20097;-86
2022/05/31 04:21:25;;;;;;;6.90;4.15;;;11.00;86.10;;;;;;4994163;28;20054;-86
2022/05/31 04:23:59;;;;;;;7.70;4.35;;;11.00;86.20;;;;;;4992977;28;20030;-86
2022/05/31 04:26:39;;;;;;;6.25;4.00;;;11.10;86.20;;;;;;4992645;28;20054;-85
2022/05/31 04:29:04;;;;;;;7.67;4.10;;;11.10;86.30;;;;;;4994098;28;20035;-85
2022/05/31 04:31:30;;;;;;;9.93;4.53;;;11.10;86.30;;;;;;4994164;28;20539;-86
2022/05/31 04:33:56;;;;;;;7.75;4.75;;;11.10;86.40;;;;;;4976822;28;20038;-86
2022/05/31 04:36:22;;;;;;;8.23;4.50;;;11.10;86.40;;;;;;4976874;28;20042;-86
2022/05/31 04:38:48;;;;;;;6.65;4.03;;;11.20;86.50;;;;;;4976574;28;20149;-86
2022/05/31 04:41:26;;;;;;;8.87;4.00;;;11.20;86.50;;;;;;4993861;28;20074;-86
2022/05/31 04:43:56;;;;;;;7.40;4.53;;;11.20;87.10;;;;;;4992661;28;20030;-86
2022/05/31 04:46:24;;;;;;;7.30;4.00;;;11.30;86.50;;;;;;4976523;28;20087;-85
2022/05/31 04:48:52;;;;;;;8.73;4.63;;;11.30;86.60;;;;;;4992768;28;20023;-85
2022/05/31 04:51:18;;;;;;;8.10;4.43;;;11.30;86.70;;;;;;4992561;28;20053;-86
2022/05/31 04:53:44;;;;;;;6.80;4.18;;;11.40;86.80;;;;;;4993858;28;20132;-87
2022/05/31 04:56:13;;;;;;;7.97;4.22;;;11.40;86.80;;;;;;4994128;28;20475;-87
2022/05/31 04:58:39;;;;;;;7.70;4.20;;;11.40;86.70;;;;;;4993868;28;20038;-85
2022/05/31 05:01:08;;;;;;;8.38;4.53;;;11.50;86.60;;;;;;4976642;28;20549;-86
2022/05/31 05:03:35;;;;;;;8.25;4.57;;;11.50;86.50;;;;;;4993833;28;20058;-87
2022/05/31 05:06:05;;;;;;;9.25;4.20;;;11.50;86.50;;;;;;4993798;28;20125;-87
2022/05/31 05:08:32;;;;;;;10.35;5.43;;;11.60;86.60;;;;;;4990856;28;20030;-87
2022/05/31 05:11:03;;;;;;;9.38;4.60;;;11.70;86.70;;;;;;4978875;28;20483;-87
2022/05/31 05:13:30;;;;;;;7.85;4.32;;;11.70;86.80;;;;;;4979476;28;20038;-87
2022/05/31 05:15:56;;;;;;;8.75;4.75;;;11.70;86.80;;;;;;4963427;28;20122;-88
2022/05/31 05:18:22;;;;;;;8.23;4.90;;;11.70;86.90;;;;;;4992913;28;20129;-87
2022/05/31 05:20:49;;;;;;;10.68;5.07;;;11.80;86.90;;;;;;4975247;28;20034;-87
2022/05/31 05:23:15;;;;;;;11.07;4.97;;;11.80;86.70;;;;;;4984851;28;20671;-88
2022/05/31 05:25:40;;;;;;;8.73;4.90;;;11.90;86.70;;;;;;4977635;28;20027;-87
2022/05/31 05:30:51;;;;;;;8.05;5.28;;;11.90;86.60;;;;;;4984779;28;20045;-88
2022/05/31 05:33:17;;;;;;;8.25;4.80;;;12.00;86.60;;;;;;4976077;28;20031;-88
2022/05/31 05:35:43;;;;;;;10.40;5.15;;;12.00;86.50;;;;;;4960618;28;20031;-87
2022/05/31 05:38:09;;;;;;;9.70;5.50;;;12.00;86.40;;;;;;4977743;28;20053;-88
2022/05/31 05:40:35;;;;;;;9.35;5.30;;;12.10;86.30;;;;;;4983639;28;20038;-88
2022/05/31 05:43:01;;;;;;;10.38;5.20;;;12.10;86.10;;;;;;4997186;28;20512;-87
2022/05/31 05:45:27;;;;;;;10.85;5.03;;;12.20;86.10;;;;;;4994244;28;20113;-82
2022/05/31 05:47:52;;;;;;;7.47;4.53;;;12.20;86.10;;;;;;4977614;28;20039;-85
2022/05/31 05:50:18;;;;;;;9.30;4.93;;;12.30;86.20;;;;;;4959948;28;20031;-85
2022/05/31 05:52:50;;;;;;;7.78;4.75;;;12.30;86.10;;;;;;4960328;28;20027;-84
2022/05/31 05:55:16;;;;;;;7.05;4.30;;;12.40;86.10;;;;;;4968274;28;20106;-84
2022/05/31 05:57:42;;;;;;;11.02;5.00;;;12.40;85.90;;;;;;4986082;28;20065;-85
2022/05/31 06:00:08;;;;;;;9.20;5.53;;;12.50;85.80;;;;;;4966214;28;20509;-84
2022/05/31 06:02:35;;;;;;;10.85;4.95;;;12.60;85.60;;;;;;4977143;28;20499;-86
2022/05/31 06:05:14;;;;;;;10.43;5.50;;;12.60;85.40;;;;;;4978120;28;20447;-84
2022/05/31 06:07:53;;;;;;;10.85;5.75;;;12.70;85.20;;;;;;4986839;28;20023;-84
2022/05/31 06:10:42;;;;;;;10.85;5.70;;;12.80;85.00;;;;;;4976922;28;20422;-85
2022/05/31 06:13:29;;;;;;;11.20;5.45;;;12.90;84.70;;;;;;4977591;28;20090;-86
2022/05/31 06:15:56;;;;;;;11.95;6.05;;;13.00;84.40;;;;;;4976408;28;20081;-83
2022/05/31 06:18:32;;;;;;;9.40;5.57;;;13.00;84.10;;;;;;4976516;28;20500;-85
2022/05/31 06:21:02;;;;;;;16.58;7.07;;;13.10;83.80;;;;;;4959809;28;20018;-84
2022/05/31 06:23:28;;;;;;;11.82;7.30;;;13.20;83.70;;;;;;4977648;28;20050;-85
2022/05/31 06:25:54;;;;;;;15.00;6.75;;;13.20;83.30;;;;;;4959956;28;20034;-84
2022/05/31 06:28:19;;;;;;;11.02;6.30;;;13.30;82.90;;;;;;4962229;28;20031;-84
2022/05/31 06:30:45;;;;;;;13.95;6.43;;;13.30;82.70;;;;;;4962251;28;20031;-82
2022/05/31 06:33:11;;;;;;;12.85;6.40;;;13.30;82.50;;;;;;4981460;28;20204;-84
2022/05/31 06:35:37;;;;;;;10.23;6.18;;;13.40;82.30;;;;;;4951079;28;20490;-84
2022/05/31 06:38:03;;;;;;;12.77;6.43;;;13.40;82.20;;;;;;4979621;28;20039;-83
2022/05/31 06:40:29;;;;;;;10.07;6.45;;;13.50;81.90;;;;;;4995290;28;20030;-83
2022/05/31 06:42:54;;;;;;;11.43;6.15;;;13.50;81.70;;;;;;4958985;28;20058;-83
2022/05/31 06:45:20;;;;;;;12.18;6.20;;;13.50;81.60;;;;;;4959107;28;20165;-82
2022/05/31 06:47:45;;;;;;;10.35;5.95;;;13.60;81.40;;;;;;4990814;28;20030;-83
2022/05/31 06:50:12;;;;;;;12.13;6.03;;;13.70;81.20;;;;;;4991042;28;20031;-82
2022/05/31 06:58:06;;;;;;;7.15;4.43;;;13.80;80.70;;;;;;4997279;28;20033;-83
2022/05/31 07:00:32;;;;;;;8.68;5.32;;;13.90;80.40;;;;;;4979060;28;20022;-86
2022/05/31 07:02:59;;;;;;;9.90;5.50;;;13.90;80.00;;;;;;4969504;28;20062;-84
2022/05/31 07:05:25;;;;;;;9.75;5.72;;;13.90;79.80;;;;;;4968443;28;20033;-85
2022/05/31 07:07:54;;;;;;;8.88;5.30;;;13.90;79.80;;;;;;4975730;28;20029;-87
2022/05/31 07:10:21;;;;;;;10.48;5.53;;;13.90;79.90;;;;;;4959094;28;20033;-85
2022/05/31 07:12:47;;;;;;;12.30;5.53;;;13.90;79.80;;;;;;4974982;28;20023;-87
2022/05/31 07:15:13;;;;;;;8.68;5.22;;;14.00;79.90;;;;;;4976859;28;20029;-84
2022/05/31 07:17:39;;;;;;;11.18;5.80;;;14.00;80.00;;;;;;4978047;28;20035;-83
2022/05/31 07:20:06;;;;;;;10.20;5.38;;;14.00;80.00;;;;;;4959871;28;20435;-85
2022/05/31 07:22:33;;;;;;;9.98;5.32;;;14.10;80.00;;;;;;4979181;28;20026;-84
2022/05/31 07:24:58;;;;;;;9.00;5.35;;;14.10;79.80;;;;;;4977721;28;20534;-85
2022/05/31 07:27:24;;;;;;;8.68;5.38;;;14.10;79.70;;;;;;4963182;28;20023;-84
2022/05/31 07:29:50;;;;;;;8.00;4.60;;;14.30;79.80;;;;;;4979530;28;20048;-83
2022/05/31 07:32:16;;;;;;;8.27;4.80;;;14.30;79.80;;;;;;4964668;28;20479;-83
2022/05/31 07:34:42;;;;;;;8.07;4.90;;;14.30;79.60;;;;;;4982935;28;20058;-82
2022/05/31 07:37:08;;;;;;;8.63;4.22;;;14.40;79.60;;;;;;4996478;28;20030;-84
2022/05/31 07:39:34;;;;;;;9.18;3.47;;;14.50;79.40;;;;;;4995549;28;20033;-84
2022/05/31 07:42:00;;;;;;;10.38;4.57;;;14.50;79.10;;;;;;4995887;28;20129;-84
2022/05/31 07:44:26;;;;;;;12.18;4.85;;;14.60;78.90;;;;;;4996350;28;20098;-84
2022/05/31 07:46:54;;;;;;;7.97;4.20;;;14.70;78.80;;;;;;4981830;28;20513;-84
2022/05/31 07:49:20;;;;;;;9.23;4.13;;;14.80;78.60;;;;;;4996561;28;20027;-84
2022/05/31 07:51:46;;;;;;;7.28;3.63;;;14.80;78.40;;;;;;4996149;28;20022;-84
2022/05/31 07:54:12;;;;;;;7.18;3.65;;;14.90;78.20;;;;;;4996349;28;20093;-84
2022/05/31 07:56:38;;;;;;;10.57;4.20;;;15.00;77.90;;;;;;4994571;28;20053;-82
2022/05/31 07:59:04;;;;;;;10.75;4.43;;;15.00;77.60;;;;;;4977194;28;20052;-84
2022/05/31 08:01:29;;;;;;;7.97;4.07;;;15.10;77.60;;;;;;4977776;28;20029;-84
2022/05/31 08:03:56;;;;;;;6.93;3.85;;;15.10;77.30;;;;;;4994636;28;20494;-84
2022/05/31 08:06:29;;;;;;;8.88;3.75;;;15.20;77.10;;;;;;4994782;28;20019;-85
2022/05/31 08:08:56;;;;;;;10.10;4.40;;;15.30;76.90;;;;;;4988953;28;20065;-84
2022/05/31 08:11:31;;;;;;;6.05;3.40;;;15.30;76.70;;;;;;4976993;28;20058;-84
2022/05/31 08:13:57;;;;;;;11.38;4.95;;;15.40;76.40;;;;;;4979135;28;20029;-84
2022/05/31 08:16:25;;;;;;;10.05;4.97;;;15.50;76.30;;;;;;4997070;28;20050;-84
2022/05/31 08:18:52;;;;;;;8.80;4.53;;;15.50;76.20;;;;;;4979447;28;20478;-84
2022/05/31 08:21:21;;;;;;;8.38;4.22;;;15.60;76.00;;;;;;4995255;28;20479;-85
2022/05/31 08:23:47;;;;;;;8.93;4.25;;;15.70;75.90;;;;;;4994495;28;20018;-83
2022/05/31 08:26:13;;;;;;;6.88;4.03;;;15.70;75.80;;;;;;4978597;28;20382;-85
2022/05/31 08:28:39;;;;;;;8.98;3.80;;;15.80;75.70;;;;;;4995119;28;20042;-85
2022/05/31 08:31:11;;;;;;;9.25;4.03;;;15.80;75.50;;;;;;4976991;28;20030;-85
2022/05/31 08:33:39;;;;;;;11.13;4.38;;;15.90;75.40;;;;;;4994348;28;20030;-85
2022/05/31 08:36:06;;;;;;;11.38;4.05;;;15.90;75.20;;;;;;4995096;28;20457;-84
2022/05/31 08:38:31;;;;;;;8.68;4.22;;;16.00;75.00;;;;;;4994465;28;20124;-84
2022/05/31 08:41:25;;;;;;;6.70;3.20;;;16.10;74.70;;;;;;4994174;28;20610;-85
2022/05/31 08:43:53;;;;;;;10.50;3.75;;;16.10;74.50;;;;;;4993688;28;20034;-84
2022/05/31 08:46:40;;;;;;;9.98;4.32;;;16.10;74.50;;;;;;4995973;28;20029;-85
2022/05/31 08:51:52;;;;;;;6.28;3.70;;;16.20;74.20;;;;;;4993333;28;20069;-84
2022/05/31 08:52:28;;;;;;;6.32;3.00;;;16.30;73.90;;;;;;4995054;28;20034;-85
2022/05/31 08:58:01;;;;;;;7.45;3.40;;;16.40;73.70;;;;;;4997623;28;20569;-84
2022/05/31 09:00:33;;;;;;;5.57;3.30;;;16.40;73.50;;;;;;4996894;28;20389;-84
2022/05/31 09:03:07;;;;;;;6.57;3.83;;;16.50;73.40;;;;;;4998168;28;20120;-82
2022/05/31 09:05:42;;;;;;;;;;;16.50;73.20;;;;;;4999664;28;20030;-85
2022/05/31 09:08:45;;;;;;;4.30;2.22;;;16.60;73.00;;;;;;4998660;28;19972;-84
2022/05/31 09:11:25;;;;;;;6.57;3.13;;;16.60;73.00;;;;;;4948690;28;20042;-83
2022/05/31 09:14:05;;;;;;;6.70;3.10;;;16.70;72.70;;;;;;4997480;28;20037;-84
2022/05/31 09:16:50;;;;;;;5.70;3.17;;;16.70;72.30;;;;;;4997689;28;20474;-81
2022/05/31 09:19:23;;;;;;;6.05;2.88;;;16.70;72.00;;;;;;4997589;28;20497;-81
2022/05/31 09:21:51;;;;;;;6.43;3.27;;;16.80;71.50;;;;;;4998959;28;20101;-84
2022/05/31 09:24:20;;;;;;;7.70;3.00;;;16.90;71.30;;;;;;4980153;28;20037;-83
2022/05/31 09:26:54;;;;;;;6.50;3.50;;;16.90;71.10;;;;;;4997739;28;20089;-83
2022/05/31 09:29:23;;;;;;;6.30;3.08;;;17.00;70.80;;;;;;4997476;28;20046;-82
2022/05/31 09:31:57;;;;;;;6.85;2.60;;;17.10;70.60;;;;;;4996097;28;20038;-84
2022/05/31 09:34:44;;;;;;;5.40;2.67;;;17.20;70.20;;;;;;4997234;28;20034;-85
2022/05/31 09:37:35;;;;;;;6.32;3.28;;;17.30;69.90;;;;;;4995734;28;20364;-81
2022/05/31 09:40:19;;;;;;;6.75;2.78;;;17.30;69.50;;;;;;4986666;28;20049;-84
2022/05/31 09:42:52;;;;;;;7.50;3.10;;;17.40;69.40;;;;;;4996657;28;20046;-84
2022/05/31 09:45:19;;;;;;;5.70;2.40;;;17.50;69.10;;;;;;4995654;28;20070;-83
2022/05/31 09:47:45;;;;;;;4.50;2.10;;;17.50;68.80;;;;;;4995328;28;20780;-81
2022/05/31 09:50:11;;;;;;;5.78;2.40;;;17.60;68.10;;;;;;4996978;28;20109;-85
2022/05/31 09:52:42;;;;;;;6.85;2.75;;;17.70;67.60;;;;;;4979223;28;20497;-80
2022/05/31 09:58:27;;;;;;;5.03;1.85;;;17.70;66.90;;;;;;4996962;28;20034;-84
2022/05/31 10:01:12;;;;;;;3.92;1.83;;;17.80;66.50;;;;;;4995082;28;20414;-86
2022/05/31 10:03:44;;;;;;;4.05;1.30;;;17.90;66.20;;;;;;4996634;28;20029;-81
2022/05/31 10:06:27;;;;;;;5.22;1.27;;;17.90;65.60;;;;;;4995669;28;20077;-81
2022/05/31 10:08:55;;;;;;;4.63;1.17;;;17.90;65.00;;;;;;4995345;28;20034;-83
2022/05/31 10:11:33;;;;;;;3.53;1.23;;;18.00;64.90;;;;;;4996128;28;20289;-81
2022/05/31 10:14:15;;;;;;;4.97;1.38;;;18.10;64.50;;;;;;4994939;28;20429;-84
2022/05/31 10:16:42;;;;;;;2.83;1.30;;;18.10;64.10;;;;;;4994820;28;20026;-83
2022/05/31 10:19:22;;;;;;;3.80;1.35;;;18.20;63.90;;;;;;4996416;28;20038;-81
2022/05/31 10:21:48;;;;;;;3.28;0.90;;;18.20;63.50;;;;;;4996126;28;20390;-84
2022/05/31 10:24:28;;;;;;;4.10;1.00;;;18.30;63.40;;;;;;4978763;28;20159;-83
2022/05/31 10:27:09;;;;;;;3.50;1.25;;;18.30;62.80;;;;;;4959085;28;20041;-86
2022/05/31 10:29:51;;;;;;;3.67;1.55;;;18.40;62.30;;;;;;4976988;28;20027;-82
2022/05/31 10:32:31;;;;;;;2.47;0.98;;;18.60;61.90;;;;;;4976985;28;20129;-84
2022/05/31 10:35:24;;;;;;;2.92;1.15;;;18.70;61.40;;;;;;4975977;28;20027;-82
2022/05/31 10:38:09;;;;;;;4.50;1.45;;;18.80;61.00;;;;;;4978374;28;20491;-82
2022/05/31 10:41:05;;;;;;;3.17;1.33;;;19.00;60.90;;;;;;4975203;28;20030;-84
2022/05/31 10:43:50;;;;;;;2.65;1.13;;;19.20;60.30;;;;;;4958715;28;20039;-82
2022/05/31 10:46:29;;;;;;;6.45;1.73;;;19.30;60.10;;;;;;4976757;28;20059;-83
2022/05/31 10:48:58;;;;;;;5.50;1.20;;;19.50;59.80;;;;;;4976215;28;20030;-85
2022/05/31 10:51:26;;;;;;;4.90;1.42;;;19.60;59.80;;;;;;4977650;28;20096;-85
2022/05/31 10:53:52;;;;;;;4.22;1.75;;;19.80;59.40;;;;;;4976435;28;20078;-81
2022/05/31 10:56:35;;;;;;;5.80;1.48;;;20.00;58.90;;;;;;4977060;28;20365;-84
2022/05/31 10:59:05;;;;;;;4.37;1.50;;;20.20;58.20;;;;;;4960320;28;20027;-84
2022/05/31 11:01:49;;;;;;;4.95;1.60;;;20.40;58.20;;;;;;4975654;28;20642;-84
2022/05/31 11:04:25;;;;;;;;;;;20.60;57.80;;;;;;4975281;28;20019;-83
2022/05/31 11:07:04;;;;;;;4.38;1.42;;;20.90;57.90;;;;;;4970483;28;20254;-83
2022/05/31 11:12:56;;;;;;;2.92;1.20;;;21.30;56.80;;;;;;4978996;28;20053;-84
2022/05/31 11:15:31;;;;;;;3.17;1.42;;;21.50;56.90;;;;;;4980560;28;20069;-84
2022/05/31 11:18:32;;;;;;;4.50;1.17;;;21.70;56.20;;;;;;4974311;28;20027;-85
2022/05/31 11:21:21;;;;;;;4.43;1.05;;;21.90;55.20;;;;;;4958630;28;20035;-84
2022/05/31 11:24:29;;;;;;;2.65;0.88;;;22.10;54.20;;;;;;4974307;28;20022;-83
2022/05/31 11:27:39;;;;;;;2.38;0.90;;;22.30;53.10;;;;;;4897101;29;20029;-83
2022/05/31 11:30:19;;;;;;;3.75;0.82;;;22.50;52.60;;;;;;4864105;29;20048;-86
2022/05/31 11:32:59;;;;;;;2.03;0.88;;;22.70;52.60;;;;;;4950871;28;20085;-83
2022/05/31 11:35:37;;;;;;;2.92;1.08;;;22.80;52.20;;;;;;4990278;28;20394;-85
2022/05/31 11:38:14;;;;;;;2.03;0.70;;;22.90;51.20;;;;;;4994676;28;20034;-86
2022/05/31 11:40:49;;;;;;;2.05;0.70;;;23.00;50.90;;;;;;4991554;28;20026;-85
2022/05/31 11:43:56;;;;;;;1.50;0.57;;;23.20;50.20;;;;;;4983635;28;20031;-85
2022/05/31 11:46:34;;;;;;;1.80;0.60;;;23.50;49.30;;;;;;4973402;28;20029;-84
2022/05/31 11:49:09;;;;;;;2.92;0.73;;;23.80;49.50;;;;;;4974049;28;20033;-85
2022/05/31 11:52:02;;;;;;;3.15;0.90;;;24.10;48.60;;;;;;4975115;28;20058;-85
2022/05/31 11:55:25;;;;;;;2.33;0.60;;;24.40;47.40;;;;;;4975254;28;20033;-82
2022/05/31 11:57:55;;;;;;;2.22;0.90;;;24.50;46.70;;;;;;4974815;28;20031;-84
2022/05/31 12:00:21;;;;;;;1.20;0.43;;;24.60;46.20;;;;;;4945739;28;20050;-85
2022/05/31 12:03:13;;;;;;;4.55;0.88;;;24.80;46.60;;;;;;4975097;28;20031;-86
2022/05/31 12:05:45;;;;;;;2.35;0.57;;;24.90;45.40;;;;;;4974885;28;20030;-85
2022/05/31 12:08:16;;;;;;;3.35;0.80;;;25.00;45.60;;;;;;4975192;28;20030;-85
2022/05/31 12:10:48;;;;;;;3.00;0.77;;;25.20;45.20;;;;;;4960940;28;20096;-85
2022/05/31 12:13:15;;;;;;;2.22;0.80;;;25.40;44.70;;;;;;4993194;28;20027;-85
2022/05/31 12:15:43;;;;;;;3.22;0.60;;;25.50;44.50;;;;;;4977180;28;20031;-87
2022/05/31 12:18:18;;;;;;;2.22;0.63;;;25.60;44.20;;;;;;4992663;28;20426;-86
2022/05/31 12:20:53;;;;;;;2.50;0.70;;;25.60;43.90;;;;;;4992622;28;20022;-86
2022/05/31 12:23:21;;;;;;;2.25;0.63;;;25.60;43.80;;;;;;4992820;28;20022;-85
2022/05/31 12:25:54;;;;;;;1.60;0.60;;;25.80;43.50;;;;;;4993029;28;20019;-82
2022/05/31 12:28:24;;;;;;;2.08;0.70;;;26.00;42.90;;;;;;4991618;28;20030;-86
2022/05/31 12:31:14;;;;;;;2.25;0.57;;;26.20;42.60;;;;;;4962059;28;20018;-85
2022/05/31 12:33:44;;;;;;;2.50;0.60;;;26.40;41.40;;;;;;4977253;28;20054;-86
2022/05/31 12:36:11;;;;;;;8.80;0.60;;;26.50;41.60;;;;;;4977362;28;20023;-85
2022/05/31 12:38:59;;;;;;;1.95;0.60;;;26.70;41.30;;;;;;4977118;28;20025;-85
2022/05/31 12:41:51;;;;;;;2.78;0.60;;;26.90;40.80;;;;;;4978372;28;20121;-84
2022/05/31 12:44:37;;;;;;;1.67;0.40;;;27.20;40.40;;;;;;4974398;28;20059;-85
2022/05/31 12:47:32;;;;;;;3.28;0.70;;;27.50;40.40;;;;;;4961398;28;20054;-85
2022/05/31 12:50:06;;;;;;;1.85;0.50;;;27.80;40.00;;;;;;4975427;28;20045;-84
2022/05/31 12:55:19;;;;;;;2.88;0.90;;;28.20;40.00;;;;;;4978364;28;20031;-84
2022/05/31 13:00:38;;;;;;;2.63;0.77;;;28.00;39.20;;;;;;4963626;28;20081;-82
2022/05/31 13:03:25;;;;;;;2.25;0.40;;;27.70;39.00;;;;;;4977865;28;20105;-82
2022/05/31 13:06:22;;;;;;;5.22;0.70;;;27.50;39.00;;;;;;4977822;28;20106;-79
2022/05/31 13:08:59;;;;;;;1.83;0.50;;;27.10;39.00;;;;;;4975542;28;20049;-78
2022/05/31 13:20:11;;;;;;;1.90;0.50;;;26.10;38.40;;;;;;4978025;28;20434;-81
2022/05/31 13:22:41;;;;;;;2.30;0.57;;;25.90;38.40;;;;;;4977663;28;20554;-80
2022/05/31 13:25:29;;;;;;;2.00;0.40;;;25.60;38.10;;;;;;4978503;28;20026;-80
2022/05/31 13:28:01;;;;;;;2.03;0.40;;;25.40;37.90;;;;;;4996214;28;20049;-80
2022/05/31 13:30:42;;;;;;;1.70;0.70;;;25.20;37.90;;;;;;4996927;28;20022;-79
2022/05/31 13:33:20;;;;;;;2.67;0.60;;;25.10;37.80;;;;;;4995433;28;20027;-80
2022/05/31 13:35:55;;;;;;;1.88;0.60;;;25.00;38.20;;;;;;4996699;28;20023;-81
2022/05/31 13:38:26;;;;;;;1.85;0.60;;;24.70;38.40;;;;;;4981246;28;20042;-81
2022/05/31 13:40:56;;;;;;;2.15;0.82;;;24.50;38.70;;;;;;4972342;28;20022;-80